Time;durP1;ratioP1;P1;durP2;ratioP2;P2;SDS_P1;SDS_P2;PMS_P1;PMS_P2;Temp;Humidity;BMP_temperature;BMP_pressure;BME280_temperature;BME280_humidity;BME280_pressure;Samples;Min_cycle;Max_cycle;Signal;HPM_P1;HPM_P2
2021/09/21 00:01:20;;;;;;;14.95;10.15;;;;;;;8.09;79.37;97816.99;1726992;83;25988;-90
2021/09/21 00:03:47;;;;;;;11.40;9.28;;;;;;;8.08;79.37;97816.16;1740108;82;25828;-93
2021/09/21 00:06:14;;;;;;;16.45;8.93;;;;;;;8.07;79.29;97815.00;1740102;82;28185;-93
2021/09/21 00:08:40;;;;;;;13.80;8.93;;;;;;;8.04;79.24;97820.73;1739923;82;26412;-91
2021/09/21 00:11:08;;;;;;;15.35;9.63;;;;;;;7.99;79.18;97819.94;1740033;82;25749;-93
2021/09/21 00:13:35;;;;;;;12.43;8.63;;;;;;;7.94;79.10;97831.77;1740036;82;26891;-87
2021/09/21 00:16:03;;;;;;;14.47;9.98;;;;;;;7.84;79.02;97828.52;1740188;82;25714;-92
2021/09/21 00:18:31;;;;;;;16.67;10.43;;;;;;;7.79;79.14;97830.91;1740078;82;27470;-92
2021/09/21 00:20:57;;;;;;;13.45;8.95;;;;;;;7.77;79.16;97830.25;1739907;82;25830;-91
2021/09/21 00:23:25;;;;;;;12.53;9.00;;;;;;;7.70;79.02;97829.33;1725865;82;25745;-89
2021/09/21 00:25:52;;;;;;;12.45;9.00;;;;;;;7.64;79.09;97831.39;1725036;81;25991;-93
2021/09/21 00:28:19;;;;;;;13.58;8.55;;;;;;;7.62;79.10;97833.41;1725007;81;25751;-93
2021/09/21 00:30:48;;;;;;;10.85;8.48;;;;;;;7.56;79.10;97835.83;1725110;81;27364;-88
2021/09/21 00:33:22;;;;;;;9.23;7.67;;;;;;;7.56;79.19;97835.83;1724952;81;25818;-92
2021/09/21 00:35:51;;;;;;;12.13;8.05;;;;;;;7.55;79.13;97839.53;1723161;81;25805;-90
2021/09/21 00:38:20;;;;;;;;;;;;;;;7.52;79.01;97835.86;1727725;81;26054;-93
2021/09/21 00:40:47;;;;;;;9.30;7.42;;;;;;;7.47;78.98;97842.30;1715686;82;25689;-93
2021/09/21 00:43:21;;;;;;;10.43;7.67;;;;;;;7.38;78.89;97846.05;1714714;82;27434;-93
2021/09/21 00:45:50;;;;;;;9.73;7.20;;;;;;;7.29;78.90;97839.08;1715006;82;25861;-91
2021/09/21 00:48:16;;;;;;;9.28;7.55;;;;;;;7.26;78.92;97836.75;1715031;82;25808;-93
2021/09/21 00:50:43;;;;;;;8.95;6.37;;;;;;;7.22;78.92;97830.09;1717522;82;26671;-94
2021/09/21 00:53:10;;;;;;;6.65;5.85;;;;;;;7.19;78.83;97835.81;1719444;82;25765;-92
2021/09/21 00:55:36;;;;;;;8.50;5.55;;;;;;;7.14;78.79;97828.78;1716137;82;27341;-93
2021/09/21 00:58:03;;;;;;;7.22;5.20;;;;;;;7.10;78.72;97834.20;1717853;82;25792;-90
2021/09/21 01:00:30;;;;;;;10.35;5.03;;;;;;;7.05;78.66;97830.70;1715546;82;25793;-93
2021/09/21 01:02:57;;;;;;;10.35;5.35;;;;;;;7.02;78.63;97831.05;1717999;82;25988;-93
2021/09/21 01:05:23;;;;;;;6.67;5.50;;;;;;;6.96;78.59;97830.44;1699262;82;25908;-93
2021/09/21 01:07:51;;;;;;;11.80;6.00;;;;;;;6.92;78.55;97834.48;1707878;82;27378;-91
2021/09/21 01:10:23;;;;;;;8.88;5.95;;;;;;;6.86;78.55;97837.39;1707179;82;26456;-93
2021/09/21 01:12:51;;;;;;;7.83;5.25;;;;;;;6.77;78.51;97843.80;1715380;82;25779;-93
2021/09/21 01:15:19;;;;;;;7.80;5.75;;;;;;;6.71;78.67;97845.86;1715291;82;25999;-94
2021/09/21 01:17:46;;;;;;;6.33;5.33;;;;;;;6.72;78.78;97849.38;1715690;82;25787;-92
2021/09/21 01:20:14;;;;;;;7.15;6.03;;;;;;;6.68;78.89;97846.20;1717319;82;26763;-92
2021/09/21 01:22:41;;;;;;;8.00;5.60;;;;;;;6.71;78.95;97851.22;1696241;82;25793;-93
2021/09/21 01:25:10;;;;;;;7.15;5.83;;;;;;;6.71;78.89;97848.54;1699775;82;25776;-91
2021/09/21 01:27:37;;;;;;;8.73;6.15;;;;;;;6.71;78.94;97839.66;1715172;82;26000;-90
2021/09/21 01:30:06;;;;;;;9.83;6.30;;;;;;;6.69;78.99;97837.14;1715149;82;25793;-93
2021/09/21 01:32:33;;;;;;;10.43;6.03;;;;;;;6.71;79.04;97840.49;1715206;82;27410;-93
2021/09/21 01:35:02;;;;;;;9.13;6.08;;;;;;;6.71;79.02;97840.49;1715098;82;25739;-92
2021/09/21 01:37:30;;;;;;;9.40;6.80;;;;;;;6.72;79.08;97838.64;1701405;82;25829;-92
2021/09/21 01:39:56;;;;;;;7.85;6.22;;;;;;;6.74;79.11;97846.02;1717769;81;25845;-91
2021/09/21 01:42:23;;;;;;;11.15;6.60;;;;;;;6.75;79.09;97845.84;1702678;83;25876;-88
2021/09/21 01:44:50;;;;;;;8.33;6.10;;;;;;;6.73;79.12;97843.84;1725635;82;27414;-93
2021/09/21 01:47:20;;;;;;;10.48;6.08;;;;;;;6.74;79.21;97845.52;1725142;81;26136;-93
2021/09/21 01:52:34;;;;;;;11.15;7.12;;;;;;;6.73;79.07;97838.98;1715399;82;26005;-94
2021/09/21 01:55:11;;;;;;;13.70;6.95;;;;;;;6.72;79.05;97836.80;1709945;81;25761;-91
2021/09/21 02:00:18;;;;;;;10.00;6.95;;;;;;;6.70;79.18;97830.77;1692149;84;25698;-92
2021/09/21 02:02:45;;;;;;;10.30;7.22;;;;;;;6.69;79.15;97833.12;1664327;85;25822;-93
2021/09/21 02:05:11;;;;;;;9.03;6.65;;;;;;;6.67;79.16;97836.48;1692480;84;26036;-92
2021/09/21 02:07:38;;;;;;;11.45;8.03;;;;;;;6.68;79.29;97834.63;1664295;85;25801;-92
2021/09/21 02:10:06;;;;;;;9.18;6.90;;;;;;;6.66;79.33;97830.78;1661485;85;28194;-92
2021/09/21 02:12:33;;;;;;;10.35;7.05;;;;;;;6.63;79.36;97835.19;1664052;85;25717;-90
2021/09/21 02:15:01;;;;;;;11.30;7.90;;;;;;;6.62;79.46;97841.55;1692225;84;25823;-91
2021/09/21 02:17:28;;;;;;;11.60;8.08;;;;;;;6.63;79.57;97832.50;1664381;85;26012;-91
2021/09/21 02:19:55;;;;;;;9.55;7.55;;;;;;;6.66;79.64;97825.42;1692418;84;25277;-91
2021/09/21 02:22:22;;;;;;;8.83;7.22;;;;;;;6.68;79.53;97828.77;1664448;85;28552;-91
2021/09/21 02:24:48;;;;;;;12.70;7.55;;;;;;;6.66;79.46;97828.09;1692268;84;25739;-91
2021/09/21 02:27:15;;;;;;;10.58;7.62;;;;;;;6.66;79.43;97830.78;1664201;85;25959;-91
2021/09/21 02:29:42;;;;;;;7.87;7.08;;;;;;;6.63;79.40;97828.98;1692324;84;25973;-90
2021/09/21 02:32:08;;;;;;;10.65;8.73;;;;;;;6.59;79.47;97831.17;1664429;84;25795;-92
2021/09/21 02:34:35;;;;;;;13.05;8.25;;;;;;;6.57;79.50;97832.34;1692399;84;28108;-92
2021/09/21 02:37:02;;;;;;;13.62;9.85;;;;;;;6.56;79.54;97844.92;1664369;85;25850;-92
2021/09/21 02:39:29;;;;;;;15.88;9.98;;;;;;;6.57;79.62;97846.59;1694582;82;25313;-90
2021/09/21 02:41:55;;;;;;;14.00;9.98;;;;;;;6.53;79.66;97854.66;1725924;82;26031;-91
2021/09/21 02:44:22;;;;;;;15.18;9.10;;;;;;;6.52;79.72;97854.32;1726192;82;25869;-91
2021/09/21 02:46:51;;;;;;;22.05;11.08;;;;;;;6.49;79.78;97854.69;1692414;83;27484;-93
2021/09/21 02:49:17;;;;;;;16.40;10.68;;;;;;;6.50;79.93;97854.52;1724812;82;25828;-92
2021/09/21 02:51:44;;;;;;;14.90;10.68;;;;;;;6.52;79.96;97857.00;1697653;82;25849;-93
2021/09/21 02:54:11;;;;;;;15.13;11.10;;;;;;;6.52;79.88;97857.53;1717866;82;26781;-94
2021/09/21 02:56:37;;;;;;;17.57;12.23;;;;;;;6.49;79.92;97864.91;1726801;82;25753;-91
2021/09/21 02:59:04;;;;;;;20.80;13.05;;;;;;;6.48;79.99;97867.27;1726403;82;27451;-92
2021/09/21 03:01:30;;;;;;;18.37;13.30;;;;;;;6.50;79.97;97868.44;1727003;82;25679;-92
2021/09/21 03:04:01;;;;;;;21.00;12.25;;;;;;;6.52;79.96;97872.29;1726604;82;25877;-92
2021/09/21 03:06:35;;;;;;;19.55;13.10;;;;;;;6.53;79.99;97872.09;1726684;82;26002;-94
2021/09/21 03:09:12;;;;;;;24.70;15.85;;;;;;;6.54;80.02;97865.72;1726120;81;25793;-94
2021/09/21 03:11:31;;;;;;;23.70;13.93;;;;;;;6.56;79.99;97870.41;1720042;82;27576;-93
2021/09/21 03:19:19;;;;;;;24.43;15.13;;;;;;;6.55;79.99;97875.94;1671335;84;26015;-93
2021/09/21 03:21:46;;;;;;;21.48;14.28;;;;;;;6.55;80.04;97879.45;1697684;82;25483;-93
2021/09/21 03:24:13;;;;;;;22.32;14.30;;;;;;;6.49;79.89;97886.38;1709571;82;28121;-92
2021/09/21 03:26:39;;;;;;;26.95;15.98;;;;;;;6.45;79.94;97894.42;1726575;82;25834;-94
2021/09/21 03:29:06;;;;;;;22.82;15.28;;;;;;;6.43;80.00;97891.07;1727132;81;25284;-92
2021/09/21 03:31:33;;;;;;;23.18;14.78;;;;;;;6.43;80.02;97894.26;1705552;83;26110;-94
2021/09/21 03:33:59;;;;;;;23.70;15.13;;;;;;;6.43;80.08;97900.96;1710181;82;25886;-92
2021/09/21 03:36:26;;;;;;;23.60;15.15;;;;;;;6.44;80.14;97899.95;1709892;82;28162;-94
2021/09/21 03:38:52;;;;;;;24.52;14.53;;;;;;;6.45;80.18;97898.95;1709933;82;25752;-95
2021/09/21 03:41:19;;;;;;;22.35;14.47;;;;;;;6.45;80.13;97907.83;1709645;82;25748;-92
2021/09/21 03:43:46;;;;;;;19.85;13.80;;;;;;;6.50;80.13;97904.64;1709998;82;26209;-92
2021/09/21 03:46:12;;;;;;;22.95;13.90;;;;;;;6.51;80.11;97898.27;1710102;82;25800;-93
2021/09/21 03:48:39;;;;;;;20.72;14.13;;;;;;;6.51;80.14;97910.34;1709822;82;27375;-95
2021/09/21 03:51:06;;;;;;;23.52;14.35;;;;;;;6.52;80.17;97909.30;1709788;82;25674;-92
2021/09/21 03:53:32;;;;;;;16.60;12.82;;;;;;;6.54;80.17;97903.27;1712425;82;25809;-92
2021/09/21 03:55:59;;;;;;;23.52;13.38;;;;;;;6.55;80.14;97904.94;1709078;83;25976;-92
2021/09/21 03:58:25;;;;;;;18.45;12.80;;;;;;;6.55;80.19;97900.92;1739426;81;25769;-93
2021/09/21 04:00:52;;;;;;;21.30;13.90;;;;;;;6.57;80.21;97913.66;1726959;82;27294;-93
2021/09/21 04:03:19;;;;;;;22.48;14.23;;;;;;;6.56;80.19;97916.00;1739479;81;25276;-92
2021/09/21 04:05:45;;;;;;;21.40;14.63;;;;;;;6.55;80.25;97918.35;1726926;83;25475;-91
2021/09/21 04:08:12;;;;;;;22.15;13.25;;;;;;;6.54;80.31;97913.99;1718598;82;26926;-93
2021/09/21 04:10:39;;;;;;;22.90;14.13;;;;;;;6.52;80.30;97910.64;1739519;82;25770;-93
2021/09/21 04:13:05;;;;;;;22.30;14.55;;;;;;;6.55;80.37;97915.67;1706294;81;27482;-93
2021/09/21 04:15:32;;;;;;;21.57;13.35;;;;;;;6.55;80.44;97910.30;1726875;82;25739;-92
2021/09/21 04:17:58;;;;;;;23.30;14.03;;;;;;;6.56;80.39;97913.32;1708162;82;25821;-94
2021/09/21 04:20:26;;;;;;;22.87;14.35;;;;;;;6.60;80.46;97913.82;1704378;82;26219;-94
2021/09/21 04:22:52;;;;;;;24.75;14.28;;;;;;;6.62;80.40;97918.00;1710699;82;25767;-94
2021/09/21 04:25:19;;;;;;;24.52;13.25;;;;;;;6.64;80.41;97915.96;1722763;82;28166;-94
2021/09/21 04:27:47;;;;;;;20.97;13.08;;;;;;;6.63;80.41;97917.00;1726622;82;25760;-88
2021/09/21 04:30:20;;;;;;;19.05;13.18;;;;;;;6.63;80.32;97919.68;1727026;82;26245;-94
2021/09/21 04:32:43;;;;;;;16.62;11.83;;;;;;;6.62;80.37;97922.03;1726216;82;25997;-92
2021/09/21 04:35:10;;;;;;;15.20;10.75;;;;;;;6.63;80.36;97917.00;1726622;81;25735;-92
2021/09/21 04:37:37;;;;;;;17.25;11.57;;;;;;;6.61;80.17;97913.65;1726474;82;28010;-92
2021/09/21 04:40:06;;;;;;;18.82;11.30;;;;;;;6.60;80.13;97910.63;1726844;81;25756;-93
2021/09/21 04:42:32;;;;;;;17.45;11.40;;;;;;;6.62;80.18;97919.34;1709270;82;25776;-93
2021/09/21 04:44:59;;;;;;;17.85;11.35;;;;;;;6.62;80.13;97922.03;1709935;82;26070;-91
2021/09/21 04:47:26;;;;;;;19.50;11.95;;;;;;;6.63;80.13;97917.00;1709651;82;26072;-93
2021/09/21 04:49:52;;;;;;;17.25;11.65;;;;;;;6.62;80.13;97919.34;1709868;82;27591;-93
2021/09/21 04:52:20;;;;;;;17.00;11.95;;;;;;;6.58;80.10;97923.38;1709821;82;26441;-91
2021/09/21 04:54:48;;;;;;;18.30;12.63;;;;;;;6.60;80.20;97928.06;1709767;82;25890;-92
2021/09/21 04:57:14;;;;;;;15.40;11.15;;;;;;;6.63;80.27;97922.36;1709940;82;26042;-91
2021/09/21 04:59:41;;;;;;;15.13;10.82;;;;;;;6.66;80.34;97926.02;1710029;82;25282;-91
2021/09/21 05:02:07;;;;;;;17.30;11.85;;;;;;;6.68;80.32;97917.30;1709902;82;27002;-92
2021/09/21 05:04:34;;;;;;;15.10;11.10;;;;;;;6.68;80.30;97917.80;1709792;82;25796;-92
2021/09/21 05:07:00;;;;;;;16.37;12.13;;;;;;;6.69;80.37;97920.31;1709863;82;25784;-92
2021/09/21 05:09:27;;;;;;;16.85;12.30;;;;;;;6.70;80.40;97920.64;1709693;82;26186;-92
2021/09/21 05:11:54;;;;;;;17.32;12.68;;;;;;;6.73;80.43;97921.64;1709923;82;25589;-90
2021/09/21 05:14:21;;;;;;;15.75;11.83;;;;;;;6.77;80.40;97922.95;1709785;82;27612;-92
2021/09/21 05:16:47;;;;;;;17.45;11.48;;;;;;;6.81;80.36;97922.94;1709918;82;25814;-94
2021/09/21 05:19:14;;;;;;;15.50;11.20;;;;;;;6.83;80.30;97928.13;1709977;82;25881;-93
2021/09/21 05:21:41;;;;;;;17.48;11.90;;;;;;;6.82;80.23;97934.00;1709830;82;26609;-95
2021/09/21 05:24:08;;;;;;;15.80;11.22;;;;;;;6.84;80.29;97933.83;1709917;82;25794;-94
2021/09/21 05:26:35;;;;;;;14.28;10.82;;;;;;;6.85;80.33;97934.17;1709852;82;27298;-92
2021/09/21 05:29:02;;;;;;;14.73;11.57;;;;;;;6.86;80.30;97934.00;1709768;82;25889;-94
2021/09/21 05:31:29;;;;;;;15.38;11.75;;;;;;;6.88;80.37;97934.63;1709644;82;25809;-94
2021/09/21 05:33:55;;;;;;;18.90;11.70;;;;;;;6.93;80.54;97937.30;1710082;82;25926;-89
2021/09/21 05:36:22;;;;;;;17.05;11.57;;;;;;;6.97;80.55;97934.11;1710216;82;25708;-94
2021/09/21 05:38:49;;;;;;;21.90;14.53;;;;;;;7.03;80.56;97941.44;1710110;82;27545;-92
2021/09/21 05:41:15;;;;;;;17.20;12.47;;;;;;;7.08;80.54;97939.08;1709399;82;25849;-94
2021/09/21 05:43:42;;;;;;;17.42;11.78;;;;;;;7.13;80.47;97946.08;1708325;82;25772;-93
2021/09/21 05:46:08;;;;;;;15.90;10.80;;;;;;;7.19;80.48;97946.73;1708691;82;25974;-94
2021/09/21 05:48:35;;;;;;;14.47;10.58;;;;;;;7.22;80.35;97953.09;1708561;82;25705;-92
2021/09/21 05:51:02;;;;;;;15.30;11.05;;;;;;;7.26;80.25;97956.23;1708686;82;28383;-93
2021/09/21 05:53:28;;;;;;;16.05;11.20;;;;;;;7.28;80.24;97964.13;1708418;82;26135;-94
2021/09/21 05:55:55;;;;;;;14.03;10.45;;;;;;;7.31;80.24;97968.64;1708552;82;25720;-92
2021/09/21 05:58:22;;;;;;;14.68;10.75;;;;;;;7.35;80.25;97969.13;1708791;82;26692;-93
2021/09/21 06:00:48;;;;;;;15.38;10.45;;;;;;;7.40;80.26;97970.26;1708414;82;25729;-94
2021/09/21 06:03:15;;;;;;;17.12;10.13;;;;;;;7.41;80.05;97973.27;1708605;82;28021;-87
2021/09/21 06:05:42;;;;;;;14.55;10.60;;;;;;;7.45;80.00;97973.26;1708468;82;26409;-95
2021/09/21 06:08:08;;;;;;;18.40;11.55;;;;;;;7.40;79.72;97974.28;1708618;82;25750;-89
2021/09/21 06:10:35;;;;;;;17.95;11.63;;;;;;;7.40;79.68;97981.00;1708524;82;26588;-92
2021/09/21 06:13:02;;;;;;;17.70;11.45;;;;;;;7.43;79.72;97973.94;1708434;82;25784;-94
2021/09/21 06:15:29;;;;;;;19.87;12.07;;;;;;;7.50;79.81;97984.29;1708490;82;28240;-92
2021/09/21 06:17:55;;;;;;;15.25;11.33;;;;;;;7.56;79.87;97983.59;1708273;82;25763;-93
2021/09/21 06:20:22;;;;;;;18.82;12.05;;;;;;;7.59;79.71;97984.59;1708252;82;25282;-94
2021/09/21 06:22:49;;;;;;;16.42;12.00;;;;;;;7.62;79.54;97983.88;1708345;82;26452;-93
2021/09/21 06:25:16;;;;;;;16.00;12.30;;;;;;;7.64;79.41;97984.53;1708487;82;25855;-94
2021/09/21 06:27:44;;;;;;;16.82;11.75;;;;;;;7.68;79.56;97983.17;1708559;82;27395;-91
2021/09/21 06:30:13;;;;;;;17.35;10.50;;;;;;;7.72;79.49;97984.50;1708562;82;26393;-93
2021/09/21 06:32:42;;;;;;;15.80;11.03;;;;;;;7.73;79.45;97986.98;1708358;82;26471;-94
2021/09/21 06:35:11;;;;;;;15.63;11.65;;;;;;;7.79;79.46;97986.28;1708483;82;26056;-87
2021/09/21 06:37:39;;;;;;;15.98;11.97;;;;;;;7.87;79.31;97988.05;1708273;82;25587;-95
2021/09/21 06:40:08;;;;;;;16.07;11.40;;;;;;;7.95;79.23;97991.53;1708421;82;28029;-94
2021/09/21 06:42:36;;;;;;;17.52;12.45;;;;;;;7.96;78.90;97993.72;1708198;82;25773;-95
2021/09/21 06:45:05;;;;;;;16.25;11.55;;;;;;;7.95;78.96;97990.70;1708682;82;25831;-89
2021/09/21 06:47:32;;;;;;;13.32;9.78;;;;;;;8.04;79.11;97992.80;1708565;82;26687;-94
2021/09/21 06:50:00;;;;;;;16.10;10.15;;;;;;;8.11;78.96;97991.88;1722977;82;25696;-93
2021/09/21 06:52:28;;;;;;;13.40;9.98;;;;;;;8.21;78.89;97994.34;1732736;82;27390;-92
2021/09/21 06:54:55;;;;;;;12.35;9.43;;;;;;;8.25;78.83;97992.44;1699993;83;25666;-94
2021/09/21 06:57:22;;;;;;;13.58;10.23;;;;;;;8.36;78.90;97995.73;1707076;83;25822;-94
2021/09/21 06:59:48;;;;;;;14.18;9.95;;;;;;;8.48;78.93;97998.30;1708438;83;26804;-90
2021/09/21 07:02:15;;;;;;;12.88;9.85;;;;;;;8.55;78.72;97992.52;1708490;82;25668;-89
2021/09/21 07:04:42;;;;;;;11.20;8.70;;;;;;;8.59;78.67;97999.19;1721335;82;27260;-93
2021/09/21 07:07:08;;;;;;;11.33;8.98;;;;;;;8.66;78.48;97992.06;1730618;82;25738;-94
2021/09/21 07:09:35;;;;;;;14.33;9.85;;;;;;;8.78;78.42;97998.66;1707087;83;25638;-91
2021/09/21 07:12:02;;;;;;;12.45;9.23;;;;;;;8.85;78.31;97999.57;1707071;83;26486;-91
2021/09/21 07:14:29;;;;;;;12.68;9.38;;;;;;;9.02;78.48;97999.72;1707115;83;25708;-93
2021/09/21 07:16:56;;;;;;;12.35;9.88;;;;;;;9.19;78.58;98000.84;1707224;83;27191;-94
2021/09/21 07:19:22;;;;;;;13.65;9.60;;;;;;;9.28;78.34;98003.27;1707033;83;26023;-94
2021/09/21 07:21:50;;;;;;;13.78;9.63;;;;;;;9.39;78.40;98004.63;1706888;83;25312;-91
2021/09/21 07:24:17;;;;;;;12.03;8.83;;;;;;;9.52;78.14;98004.79;1707021;83;26048;-92
2021/09/21 07:26:50;;;;;;;14.03;9.58;;;;;;;9.62;77.71;98003.96;1707059;83;25301;-91
2021/09/21 07:29:17;;;;;;;;;;;;;;;9.78;77.71;98001.52;1698765;83;27388;-94
2021/09/21 07:31:44;;;;;;;15.08;9.40;;;;;;;9.89;77.59;97998.34;1719400;82;25762;-94
2021/09/21 07:34:11;;;;;;;11.80;9.20;;;;;;;9.95;77.67;98002.11;1710494;83;25730;-93
2021/09/21 07:36:37;;;;;;;10.30;7.78;;;;;;;10.05;77.42;97998.56;1726513;82;26376;-94
2021/09/21 07:39:05;;;;;;;17.05;10.20;;;;;;;10.10;77.09;97996.14;1704473;83;25763;-91
2021/09/21 07:41:32;;;;;;;12.95;10.10;;;;;;;10.22;77.05;98001.36;1696566;82;28201;-90
2021/09/21 07:43:59;;;;;;;18.27;10.80;;;;;;;10.32;76.73;97999.16;1718318;82;25280;-89
2021/09/21 07:46:26;;;;;;;13.98;10.30;;;;;;;10.37;76.65;98000.77;1699080;82;25711;-84
2021/09/21 07:48:53;;;;;;;17.17;10.35;;;;;;;10.51;76.54;98004.37;1716551;81;25999;-90
2021/09/21 07:51:19;;;;;;;10.65;7.60;;;;;;;10.68;76.64;98000.36;1725826;82;25767;-94
2021/09/21 07:53:46;;;;;;;11.20;7.83;;;;;;;10.83;76.16;98009.19;1738211;82;27637;-86
2021/09/21 07:56:12;;;;;;;11.73;8.10;;;;;;;11.02;75.95;98008.14;1718662;81;25928;-90
2021/09/21 07:58:39;;;;;;;10.53;7.80;;;;;;;11.29;75.50;98006.41;1718952;81;25826;-90
2021/09/21 08:01:06;;;;;;;9.35;7.47;;;;;;;11.40;75.19;98007.18;1739422;81;26722;-86
2021/09/21 08:03:32;;;;;;;10.28;7.70;;;;;;;11.54;74.86;98011.09;1739553;81;25748;-92
2021/09/21 08:05:59;;;;;;;9.48;7.15;;;;;;;11.64;74.48;98010.70;1739535;81;27597;-92
2021/09/21 08:08:25;;;;;;;9.18;7.05;;;;;;;11.68;74.14;98004.37;1739498;81;25813;-91
2021/09/21 08:10:52;;;;;;;10.23;7.70;;;;;;;11.76;74.36;98002.34;1739593;82;25721;-92
2021/09/21 08:13:19;;;;;;;9.28;7.15;;;;;;;12.04;74.32;97999.49;1739454;81;25835;-92
2021/09/21 08:15:45;;;;;;;9.98;7.22;;;;;;;12.38;73.69;97995.76;1724330;82;25801;-93
2021/09/21 08:18:12;;;;;;;10.90;7.17;;;;;;;12.68;73.54;97993.98;1734032;81;27903;-93
2021/09/21 08:20:38;;;;;;;10.88;7.87;;;;;;;12.98;73.07;97993.28;1739594;81;26431;-93
2021/09/21 08:23:05;;;;;;;9.68;7.33;;;;;;;13.02;72.58;97988.28;1739535;81;25844;-89
2021/09/21 08:25:32;;;;;;;7.65;6.50;;;;;;;13.09;72.26;97993.67;1739764;81;25951;-93
2021/09/21 08:27:59;;;;;;;8.53;6.62;;;;;;;13.11;71.71;97992.42;1739628;81;25749;-93
2021/09/21 08:30:25;;;;;;;7.40;5.92;;;;;;;13.03;71.31;97994.02;1739480;81;27357;-92
2021/09/21 08:32:52;;;;;;;7.25;6.10;;;;;;;13.05;70.98;97993.25;1739593;81;25892;-92
2021/09/21 08:35:19;;;;;;;10.05;6.20;;;;;;;12.92;70.66;97996.02;1739659;81;25733;-94
2021/09/21 08:37:45;;;;;;;6.70;5.83;;;;;;;12.83;70.56;98003.52;1738308;81;26729;-94
2021/09/21 08:40:13;;;;;;;9.33;6.45;;;;;;;12.78;70.76;98006.57;1726107;83;25710;-87
2021/09/21 08:42:40;;;;;;;9.23;6.05;;;;;;;12.75;71.04;98005.11;1739519;82;27426;-92
2021/09/21 08:45:07;;;;;;;8.88;6.40;;;;;;;12.78;70.71;98011.47;1724166;82;25302;-92
2021/09/21 08:47:36;;;;;;;8.83;5.97;;;;;;;12.79;70.36;98012.30;1706249;81;26323;-91
2021/09/21 08:50:04;;;;;;;6.15;5.50;;;;;;;12.77;70.18;98011.67;1725083;82;26755;-92
2021/09/21 08:52:31;;;;;;;8.40;6.28;;;;;;;12.71;70.17;98005.73;1726300;82;25747;-89
2021/09/21 08:54:57;;;;;;;9.13;6.17;;;;;;;12.79;70.71;98007.72;1725089;82;27370;-92
2021/09/21 08:57:25;;;;;;;10.48;5.53;;;;;;;12.94;70.49;98006.94;1725049;82;25320;-91
2021/09/21 08:59:55;;;;;;;10.03;5.60;;;;;;;13.02;70.36;98013.20;1702604;81;25797;-95
2021/09/21 09:02:23;;;;;;;5.78;5.08;;;;;;;13.08;69.97;98010.45;1710524;83;26008;-93
2021/09/21 09:05:01;;;;;;;6.17;4.95;;;;;;;13.21;69.39;98006.38;1724980;82;25794;-93
2021/09/21 09:07:28;;;;;;;8.80;5.17;;;;;;;13.30;69.06;98006.45;1717232;82;27469;-93
2021/09/21 09:10:05;;;;;;;6.47;4.50;;;;;;;13.29;68.62;98016.98;1697233;83;25896;-92
2021/09/21 09:12:34;;;;;;;5.95;4.55;;;;;;;13.26;68.48;98014.72;1713890;83;25762;-93
2021/09/21 09:15:20;;;;;;;7.15;4.60;;;;;;;13.18;68.21;98016.29;1740115;82;26065;-89
2021/09/21 09:18:00;;;;;;;6.30;4.37;;;;;;;13.14;68.31;98023.20;1740201;82;26209;-89
2021/09/21 09:20:40;;;;;;;6.12;4.58;;;;;;;13.01;68.27;98024.55;1740056;82;28353;-93
2021/09/21 09:23:10;;;;;;;6.67;4.83;;;;;;;12.99;67.99;98026.12;1740006;82;25777;-94
2021/09/21 09:25:47;;;;;;;6.78;4.58;;;;;;;12.98;68.33;98019.55;1740044;82;25911;-91
2021/09/21 09:28:24;;;;;;;8.05;4.58;;;;;;;12.96;68.00;98020.28;1739992;82;25969;-93
2021/09/21 09:30:52;;;;;;;6.35;4.60;;;;;;;12.93;67.89;98016.63;1740057;82;25875;-89
2021/09/21 09:33:20;;;;;;;6.72;4.90;;;;;;;12.87;67.74;98023.74;1739970;82;28050;-91
2021/09/21 09:35:50;;;;;;;10.53;5.17;;;;;;;12.82;67.84;98026.76;1739861;82;25773;-90
2021/09/21 09:38:20;;;;;;;6.60;4.55;;;;;;;12.86;67.79;98021.23;1726831;83;25795;-91
2021/09/21 09:40:54;;;;;;;6.03;4.47;;;;;;;12.89;68.10;98015.41;1740012;82;26234;-90
2021/09/21 09:43:24;;;;;;;4.50;3.90;;;;;;;12.91;67.66;98020.09;1739827;82;25781;-89
2021/09/21 09:45:55;;;;;;;5.58;4.10;;;;;;;12.83;67.72;98021.13;1715203;82;27667;-89
2021/09/21 09:48:24;;;;;;;8.08;4.58;;;;;;;12.80;67.70;98016.68;1710495;82;25714;-92
2021/09/21 09:50:54;;;;;;;5.40;4.22;;;;;;;12.76;67.36;98019.48;1710467;82;25679;-90
2021/09/21 09:53:25;;;;;;;4.50;4.10;;;;;;;12.68;67.44;98018.36;1710371;82;25992;-90
2021/09/21 09:55:54;;;;;;;5.20;4.70;;;;;;;12.66;67.45;98020.44;1725625;82;26045;-88
2021/09/21 09:58:22;;;;;;;6.53;4.85;;;;;;;12.60;67.64;98024.28;1740159;82;27429;-90
2021/09/21 10:00:49;;;;;;;7.50;5.10;;;;;;;12.48;67.40;98017.83;1726820;82;26014;-92
2021/09/21 10:03:16;;;;;;;6.83;4.90;;;;;;;12.36;67.53;98021.37;1726837;81;25801;-90
2021/09/21 10:05:43;;;;;;;6.12;4.55;;;;;;;12.34;67.72;98016.67;1739849;82;25778;-91
2021/09/21 10:08:11;;;;;;;8.30;5.17;;;;;;;12.38;67.97;98016.06;1739985;82;25745;-91
2021/09/21 10:10:40;;;;;;;8.23;4.60;;;;;;;12.39;67.77;98017.73;1740011;82;27324;-91
2021/09/21 10:13:14;;;;;;;7.80;5.05;;;;;;;12.38;67.87;98010.65;1739960;82;25939;-87
2021/09/21 10:15:43;;;;;;;9.85;5.05;;;;;;;12.43;67.81;98020.34;1739980;82;25286;-92
2021/09/21 10:18:21;;;;;;;7.55;4.40;;;;;;;12.52;67.77;98022.31;1739944;82;26938;-92
2021/09/21 10:21:03;;;;;;;5.92;3.98;;;;;;;12.66;68.24;98017.73;1739982;82;25403;-88
2021/09/21 10:23:36;;;;;;;6.55;3.72;;;;;;;12.97;67.86;98016.00;1740191;82;28219;-88
2021/09/21 10:26:16;;;;;;;5.80;3.40;;;;;;;13.16;67.24;98017.02;1707106;82;25770;-91
2021/09/21 10:28:45;;;;;;;5.60;3.75;;;;;;;13.22;66.61;98021.61;1726630;82;25769;-91
2021/09/21 10:31:15;;;;;;;6.15;3.90;;;;;;;13.19;66.51;98018.48;1740151;82;27185;-86
2021/09/21 10:33:42;;;;;;;5.53;3.70;;;;;;;13.20;66.01;98020.15;1740199;82;25840;-88
2021/09/21 10:36:32;;;;;;;6.65;3.45;;;;;;;13.17;65.61;98013.27;1740167;82;28454;-89
2021/09/21 10:39:10;;;;;;;5.35;3.80;;;;;;;13.13;65.45;98017.44;1739981;82;25749;-95
2021/09/21 10:41:57;;;;;;;6.72;3.77;;;;;;;13.09;65.49;98016.70;1740144;82;26358;-89
2021/09/21 10:44:24;;;;;;;5.70;3.87;;;;;;;12.98;65.14;98022.27;1732581;82;25980;-87
2021/09/21 10:47:04;;;;;;;5.12;4.05;;;;;;;12.93;65.10;98019.34;1725992;81;25822;-87
2021/09/21 10:49:38;;;;;;;6.50;4.12;;;;;;;13.11;65.15;98010.03;1716465;81;26796;-90
2021/09/21 10:52:11;;;;;;;5.92;3.90;;;;;;;13.29;64.71;98010.73;1700046;83;25831;-89
2021/09/21 10:54:41;;;;;;;6.17;3.80;;;;;;;13.36;64.83;98010.72;1727067;83;25693;-87
2021/09/21 10:57:31;;;;;;;5.95;3.87;;;;;;;13.32;64.06;98009.78;1739854;82;26098;-86
2021/09/21 11:00:05;;;;;;;6.40;4.15;;;;;;;13.29;63.94;98018.34;1710236;82;25261;-86
2021/09/21 11:02:41;;;;;;;8.15;4.67;;;;;;;13.18;63.93;98016.81;1726883;81;27423;-89
2021/09/21 11:05:16;;;;;;;8.10;4.25;;;;;;;13.10;64.02;98013.79;1726647;82;25819;-89
2021/09/21 11:08:02;;;;;;;6.53;4.50;;;;;;;13.08;64.02;98013.16;1727200;81;25730;-87
2021/09/21 11:10:34;;;;;;;7.95;5.12;;;;;;;13.05;63.98;98016.29;1726837;83;26707;-88
2021/09/21 11:13:01;;;;;;;6.87;5.12;;;;;;;13.08;64.05;98015.88;1727375;81;25717;-86
2021/09/21 11:15:29;;;;;;;7.33;4.80;;;;;;;13.14;64.54;98008.30;1703033;83;28273;-87
2021/09/21 11:18:07;;;;;;;7.75;5.08;;;;;;;13.24;64.30;98003.25;1725330;82;25821;-85
2021/09/21 11:20:52;;;;;;;7.40;4.92;;;;;;;13.32;64.27;98005.72;1738705;81;26319;-89
2021/09/21 11:23:22;;;;;;;4.87;4.37;;;;;;;13.53;63.94;97998.32;1725733;81;26599;-87
2021/09/21 11:25:51;;;;;;;6.87;4.50;;;;;;;13.78;64.51;97982.13;1739648;82;26586;-84
2021/09/21 11:28:19;;;;;;;6.85;4.70;;;;;;;14.06;64.90;97980.70;1739609;82;27388;-88
2021/09/21 11:30:46;;;;;;;5.55;4.80;;;;;;;14.23;63.60;97980.17;1739551;82;25876;-86
2021/09/21 11:33:24;;;;;;;6.80;5.10;;;;;;;14.32;63.69;97977.48;1739751;82;25734;-90
2021/09/21 11:35:55;;;;;;;6.90;4.40;;;;;;;14.34;63.10;97984.89;1738224;82;26107;-85
2021/09/21 11:38:23;;;;;;;8.88;4.83;;;;;;;14.31;62.75;97986.16;1739686;82;25677;-85
2021/09/21 11:40:52;;;;;;;7.35;4.90;;;;;;;14.24;62.15;97988.63;1727155;82;27550;-86
2021/09/21 11:43:19;;;;;;;8.25;4.45;;;;;;;14.14;61.54;97992.34;1739212;81;25857;-86
2021/09/21 11:45:49;;;;;;;6.83;4.97;;;;;;;14.01;61.76;97994.09;1716205;82;25795;-87
2021/09/21 11:48:17;;;;;;;5.90;4.95;;;;;;;13.99;61.55;97987.23;1710565;82;26015;-88